الصفحة الرئيسية
METAR-TAF:

METAR-TAF

مطار :

مدينة غواتيمالا, غواتيمالا

دائرة عرض: 14-35N, خط طول: 090-31W, ارتفاع: 1489 متر

مراقبة الطقس الحالي

تاريخ ووقت الإصدار 36 دقيقة قبل الساعة 17:00UTC
ريح 14 عقدة من الشمال
درجة الحرارة 18°درجة مئوية
الرطوبة 56%
ضغط 1029 hPa
الرؤية 10 كم أو أكثر
غيوم مفككة على ارتفاع 20000 قدم

METAR: MGGT 161700Z 36014KT CAVOK 18/09 Q1029 A3039 BKN200

زمن: 11:36 (17:36 UTC)

توقعات

تاريخ ووقت الإصدار 36 دقيقة قبل الساعة 17:00UTC
التوقعات صالحة من16 الساعة 18 UTC إلى 17 الساعة 18 UTC
ريح 16 عقدة من الشمال
الرؤية 10 كم أو أكثر
غيوم قليلة على ارتفاع 1800 قدم
أصبح
من 17 الساعة 03 UTC إلى 17 الساعة 05 UTC
غيوم متفرقة على ارتفاع 1600 قدم
أصبح
من 17 الساعة 15 UTC إلى 17 الساعة 17 UTC
غيوم متفرقة على ارتفاع 1800 قدم

TAF: MGGT 161700Z 1618/1718 36016KT 9999 FEW018 TX21/1620Z TN09/1712Z BECMG 1703/1705 SCT016 BECMG 1715/1717 SCT018

أرصاد الطقس والتوقعات من أكثر من 4000 مطار (تقارير الطقس للمطار METAR والتنبؤ بالطقس بالمطارTAF).

المحطات المتاحة هي النقط الصفراء والحمراء على الخريطة.

حرك المؤشر فوق النقطة لمعرفة اسم المحطة.

ثم انقر لمعرفة أرصاد وتوقعات الطقس.

لتغيير الخارطة: اضغط على الأزرار الخضراء مع رمز الصليب الأسود للتكبير. على الزر الأخضر مع شرطة للتصغير، أو على الأسهم الخضراء للخرائط المجاورة.


METAR-TAF: